Latest Weather Observations for Adele Island

IDW60801

Issued at 10:05 am WST Saturday 19 April 2014 (issued every 30 minutes, with the page automatically refreshed every 10 minutes)

About weather observations | Map of weather stations | Latest weather observations for WA | Other Formats
Station Details ID: 200735 Name: ADELE ISLAND Lat: -15.51 Lon: 123.16 Height: 4.6 m
Data from the previous 72 hours. | See also: Recent months for locations in Western Australia
Date/Time
WST
Temp
°C
App
Temp
°C
Dew
Point
Rel
Hum
%
Delta-T
°C
Wind Press
QNH
hPa
Press
MSL
hPa
Rain
since 9 am
mm
Dir
 
Spd
km/h
Gust
km/h
Spd
kts
Gust
kts
19/10:00am 31.5 - - - - ESE 17 20 9 11 1011.9 1011.8 -
19/09:30am 31.4 - - - - ESE 15 19 8 10 1012.2 - -
19/09:00am 31.1 - - - - SE 13 15 7 8 1012.1 1012.0 -
19/08:30am 30.5 - - - - ESE 11 15 6 8 1012.2 - -
19/08:00am 30.2 - - - - S 9 13 5 7 1012.1 1012.0 -
19/07:30am 29.3 - - - - SSW 9 11 5 6 1012.0 - -
19/07:00am 28.7 - - - - SSW 11 11 6 6 1011.7 1011.6 -
19/06:30am 28.6 - - - - SSE 13 15 7 8 1011.5 - -
19/06:00am 28.9 - - - - SSW 15 15 8 8 1011.4 1011.3 -
19/05:30am 28.9 - - - - SSW 9 11 5 6 1011.3 - -
19/05:00am 29.3 - - - - SW 11 13 6 7 1011.0 1010.9 -
19/04:30am 28.7 - - - - SW 6 11 3 6 1010.9 - -
19/04:00am 28.9 - - - - CALM 0 0 0 0 1010.9 1010.8 -
19/03:30am 29.0 - - - - CALM 0 0 0 0 1011.0 - -
19/03:00am 29.1 - - - - CALM 0 0 0 0 1011.2 1011.1 -
19/02:30am 29.0 - - - - CALM 0 0 0 0 1011.2 - -
19/02:00am 29.1 - - - - CALM 0 0 0 0 1011.3 1011.2 -
19/01:30am 29.0 - - - - CALM 0 0 0 0 1011.3 - -
19/01:00am 29.5 - - - - NNW 2 4 1 2 1011.6 1011.5 -
19/12:30am 29.8 - - - - W 6 7 3 4 1011.7 - -
19/12:00am 29.8 - - - - WNW 6 7 3 4 1012.1 1012.0 -
 
Date/Time
WST
Temp
°C
App
Temp
°C
Dew
Point
Rel
Hum
%
Delta-T
°C
Wind Press
QNH
hPa
Press
MSL
hPa
Rain
since 9 am
mm
Dir
 
Spd
km/h
Gust
km/h
Spd
kts
Gust
kts
18/11:30pm 29.5 - - - - W 6 7 3 4 1012.3 - -
18/11:00pm 29.5 - - - - SW 7 9 4 5 1012.4 1012.3 -
18/10:30pm 29.7 - - - - SSW 11 11 6 6 1012.4 - -
18/10:00pm 29.7 - - - - SSW 11 11 6 6 1012.7 1012.6 -
18/09:30pm 29.6 - - - - SSW 13 13 7 7 1012.8 - -
18/09:00pm 29.7 - - - - SSW 15 15 8 8 1012.7 1012.6 -
18/08:30pm 29.4 - - - - S 7 11 4 6 1012.7 - -
18/08:00pm 29.7 - - - - SSW 9 13 5 7 1012.4 1012.3 -
18/07:30pm 29.7 - - - - SSE 7 7 4 4 1012.1 - -
18/07:00pm 29.8 - - - - SE 7 9 4 5 1011.6 1011.5 -
18/06:30pm 29.9 - - - - SE 7 9 4 5 1011.3 - -
18/06:00pm 29.8 - - - - SE 7 7 4 4 1011.1 1011.0 -
18/05:30pm 29.6 - - - - SE 7 9 4 5 1010.8 - -
18/05:00pm 30.4 - - - - E 11 13 6 7 1010.7 1010.6 -
18/04:30pm 30.8 - - - - ESE 13 17 7 9 1010.4 - -
18/04:00pm 31.2 - - - - SE 15 17 8 9 1010.0 1009.9 -
18/03:30pm 31.2 - - - - SE 15 17 8 9 1010.0 - -
18/03:00pm 31.6 - - - - ESE 17 20 9 11 1010.1 1010.0 -
18/02:30pm 31.4 - - - - ESE 19 22 10 12 1010.2 - -
18/02:00pm 31.1 - - - - ESE 20 26 11 14 1010.4 1010.3 -
18/01:30pm 31.5 - - - - ESE 20 26 11 14 1010.5 - -
18/01:00pm 31.6 - - - - ESE 20 24 11 13 1010.8 1010.7 -
18/12:30pm 32.6 - - - - E 20 26 11 14 1011.1 - -
18/12:00pm 31.8 - - - - ESE 22 28 12 15 1011.4 1011.3 -
18/11:30am 31.7 - - - - ESE 22 28 12 15 1011.6 - -
18/11:00am 31.5 - - - - ESE 22 26 12 14 1011.9 1011.8 -
18/10:30am 30.8 - - - - SE 20 24 11 13 1012.3 - -
18/10:00am 31.0 - - - - ESE 20 26 11 14 1012.7 1012.6 -
18/09:30am 30.7 - - - - SSE 17 22 9 12 1012.9 - -
18/09:00am 30.6 - - - - SSE 17 22 9 12 1012.7 1012.6 -
18/08:30am 30.6 - - - - S 19 20 10 11 1012.5 - -
18/08:00am 30.1 - - - - S 19 20 10 11 1012.3 1012.2 -
18/07:30am 29.6 - - - - SE 13 15 7 8 1012.2 - -
18/07:00am 28.7 - - - - S 15 15 8 8 1012.1 1012.0 -
18/06:30am 27.9 - - - - SSE 17 19 9 10 1012.0 - -
18/06:00am 28.8 - - - - S 13 15 7 8 1011.8 1011.7 -
18/05:30am 28.6 - - - - S 11 13 6 7 1011.7 - -
18/05:00am 29.0 - - - - S 11 11 6 6 1011.5 1011.4 -
18/04:30am 29.3 - - - - SSE 9 9 5 5 1011.4 - -
18/04:00am 29.2 - - - - S 11 13 6 7 1011.3 1011.2 -
18/03:30am 29.3 - - - - SE 9 13 5 7 1011.2 - -
18/03:00am 29.1 - - - - S 11 11 6 6 1011.2 1011.1 -
18/02:30am 29.4 - - - - S 11 13 6 7 1011.2 - -
18/02:00am 29.3 - - - - S 13 15 7 8 1011.4 1011.3 -
18/01:30am 29.2 - - - - ENE 9 9 5 5 1011.5 - -
18/01:00am 29.1 - - - - E 7 9 4 5 1011.7 1011.6 -
18/12:30am 29.4 - - - - SE 9 11 5 6 1011.9 - -
18/12:00am 29.0 - - - - SE 9 13 5 7 1012.4 1012.3 -
 
Date/Time
WST
Temp
°C
App
Temp
°C
Dew
Point
Rel
Hum
%
Delta-T
°C
Wind Press
QNH
hPa
Press
MSL
hPa
Rain
since 9 am
mm
Dir
 
Spd
km/h
Gust
km/h
Spd
kts
Gust
kts
17/11:30pm 29.1 - - - - E 7 11 4 6 1012.6 - -
17/11:00pm 29.1 - - - - SE 9 11 5 6 1012.8 1012.7 -
17/10:00pm 29.4 - - - - SSE 15 15 8 8 1012.9 1012.8 -
17/09:30pm 30.2 - - - - E 9 11 5 6 1012.9 - -
17/09:00pm 29.7 - - - - ESE 11 11 6 6 1012.8 1012.7 -
17/08:30pm 29.5 - - - - SE 9 11 5 6 1012.9 - -
17/08:00pm 29.8 - - - - CALM 0 0 0 0 1012.6 1012.5 -
17/07:30pm 28.9 - - - - NE 6 7 3 4 1012.4 - -
17/07:00pm 30.1 - - - - ENE 7 7 4 4 1012.1 1012.0 -
17/06:30pm 29.9 - - - - ENE 7 7 4 4 1011.8 - -
17/06:00pm 29.5 - - - - ESE 7 9 4 5 1011.6 1011.5 -
17/05:30pm 29.4 - - - - SE 7 9 4 5 1011.3 - -
17/05:00pm 30.2 - - - - SE 11 13 6 7 1010.8 1010.7 -
17/04:30pm 30.9 - - - - SE 13 15 7 8 1010.6 - -
17/04:00pm 31.1 - - - - SE 13 17 7 9 1010.3 1010.2 -
17/03:30pm 31.3 - - - - ESE 15 17 8 9 1010.2 - -
17/03:00pm 31.4 - - - - ESE 15 20 8 11 1010.0 1009.9 -
17/02:30pm 31.8 - - - - ESE 17 20 9 11 1010.1 - -
17/02:00pm 31.3 - - - - ESE 17 20 9 11 1010.3 1010.2 -
17/01:30pm 31.7 - - - - ESE 19 24 10 13 1010.4 - -
17/01:00pm 31.5 - - - - ESE 20 26 11 14 1010.6 1010.5 -
17/12:30pm 31.5 - - - - ESE 20 24 11 13 1010.8 - -
17/12:00pm 31.5 - - - - ESE 19 24 10 13 1011.1 1011.0 -
17/11:30am 31.5 - - - - ESE 19 22 10 12 1011.5 - -
17/11:00am 30.7 - - - - SE 17 20 9 11 1011.9 1011.8 -
17/10:30am 30.8 - - - - SE 15 17 8 9 1012.3 - -
17/10:00am 31.0 - - - - ESE 17 20 9 11 1012.8 1012.7 -
17/09:30am 30.6 - - - - ESE 17 22 9 12 1013.1 - -
17/09:00am 31.3 - - - - ESE 17 20 9 11 1013.1 1013.0 -
17/08:30am 30.3 - - - - SE 13 15 7 8 1013.0 - -
17/08:00am 29.8 - - - - E 9 11 5 6 1012.7 1012.6 -
17/07:30am 29.6 - - - - CALM 0 7 0 4 1012.4 - -
17/07:00am 30.0 - - - - CALM 0 4 0 2 1012.2 1012.1 -
17/06:30am 29.0 - - - - CALM 0 4 0 2 1012.1 - -
17/06:00am 28.7 - - - - SE 4 6 2 3 1011.5 1011.4 -
17/05:30am 28.5 - - - - CALM 0 0 0 0 1011.2 - -
17/05:00am 28.4 - - - - CALM 0 0 0 0 1011.1 1011.0 -
17/04:30am 28.5 - - - - CALM 0 0 0 0 1011.2 - -
17/04:00am 28.5 - - - - CALM 0 0 0 0 1011.1 1011.0 -
17/03:30am 28.6 - - - - CALM 0 0 0 0 1010.8 - -
17/03:00am 28.6 - - - - CALM 0 0 0 0 1010.8 1010.7 -
17/02:30am 28.9 - - - - CALM 0 0 0 0 1010.9 - -
17/02:00am 28.7 - - - - S 7 9 4 5 1011.0 1010.9 -
17/01:30am 28.8 - - - - S 7 7 4 4 1011.1 - -
17/01:00am 28.7 - - - - S 9 11 5 6 1011.1 1011.0 -
17/12:30am 28.9 - - - - S 9 11 5 6 1011.6 - -
17/12:00am 29.0 - - - - S 11 13 6 7 1011.7 1011.6 -
 
Date/Time
WST
Temp
°C
App
Temp
°C
Dew
Point
Rel
Hum
%
Delta-T
°C
Wind Press
QNH
hPa
Press
MSL
hPa
Rain
since 9 am
mm
Dir
 
Spd
km/h
Gust
km/h
Spd
kts
Gust
kts
16/11:30pm 28.8 - - - - S 7 9 4 5 1011.7 - -
16/11:00pm 29.1 - - - - S 6 7 3 4 1011.7 1011.6 -
16/10:30pm 29.2 - - - - S 7 9 4 5 1011.8 - -
16/10:00pm 28.7 - - - - S 9 11 5 6 1011.9 1011.8 -
16/09:30pm 28.6 - - - - SSE 11 11 6 6 1011.8 - -
16/09:00pm 29.1 - - - - SE 7 9 4 5 1011.7 1011.6 -
16/08:30pm 28.9 - - - - SE 7 9 4 5 1011.5 - -
16/08:00pm 28.9 - - - - ESE 7 9 4 5 1011.3 1011.2 -
16/07:30pm 29.2 - - - - E 9 9 5 5 1010.9 - -
16/07:00pm 29.1 - - - - E 7 9 4 5 1010.5 1010.4 -
16/06:30pm 29.0 - - - - E 9 9 5 5 1010.2 - -
16/06:00pm 29.7 - - - - E 11 13 6 7 1010.0 1009.9 -
16/05:30pm 29.3 - - - - E 6 13 3 7 1010.0 - -
16/05:00pm 29.6 - - - - E 11 15 6 8 1009.6 1009.5 -
16/04:30pm 30.0 - - - - E 13 17 7 9 1009.4 - -
16/04:00pm 30.6 - - - - E 15 19 8 10 1009.3 1009.2 -
16/03:30pm 30.7 - - - - ENE 17 22 9 12 1009.2 - -
16/03:00pm 31.0 - - - - ENE 19 26 10 14 1009.2 1009.1 -
16/02:30pm 30.9 - - - - NE 20 26 11 14 1009.3 - -
16/02:00pm 30.8 - - - - NE 24 30 13 16 1009.5 1009.4 -
16/01:30pm 31.0 - - - - ENE 22 28 12 15 1009.8 - -
16/01:00pm 30.6 - - - - ENE 26 32 14 17 1010.0 1009.9 -
16/12:30pm 30.4 - - - - E 24 30 13 16 1010.3 - -
16/12:00pm 30.3 - - - - E 26 30 14 16 1010.8 1010.7 -
16/11:30am 30.4 - - - - NE 24 32 13 17 1011.1 - -
16/11:00am 30.3 - - - - ENE 26 33 14 18 1011.5 1011.4 -
16/10:30am 30.3 - - - - E 26 32 14 17 1011.9 - -

Other Formats:

Comma delimited format used in spreadsheet applications
http://www.bom.gov.au/fwo/IDW60801/IDW60801.94210.axf

JavaScript Object Notation format (JSON) in row-major order
http://www.bom.gov.au/fwo/IDW60801/IDW60801.94210.json